Time,TemperatureF,DewpointF,PressureIn,WindDirection,WindDirectionDegrees,WindSpeedMPH,WindSpeedGustMPH,Humidity,HourlyPrecipIn,Conditions,Clouds,dailyrainin,SoftwareType,DateUTC
2013-03-04 00:03:00,26.4,18.0,29.65,South,180,2.7,-999.0,70,-99.99,,,0.00,Acu-Link.com,2013-03-04 05:03:00,
2013-03-04 00:18:00,26.2,17.8,29.65,South,180,2.7,-999.0,70,-99.99,,,0.00,Acu-Link.com,2013-03-04 05:18:00,
2013-03-04 00:33:00,26.1,17.7,29.65,SSE,157,2.2,-999.0,70,-99.99,,,0.00,Acu-Link.com,2013-03-04 05:33:00,
2013-03-04 00:49:00,26.1,17.7,29.65,ESE,112,2.2,-999.0,70,-99.99,,,0.00,Acu-Link.com,2013-03-04 05:49:00,
2013-03-04 01:04:00,26.1,18.0,29.65,ESE,112,5.3,-999.0,71,-99.99,,,0.00,Acu-Link.com,2013-03-04 06:04:00,
2013-03-04 01:19:00,26.2,18.1,29.66,East,90,4.7,-999.0,71,-99.99,,,0.00,Acu-Link.com,2013-03-04 06:19:00,
2013-03-04 01:34:00,26.2,18.4,29.66,NE,45,1.7,-999.0,72,-99.99,,,0.00,Acu-Link.com,2013-03-04 06:34:00,
2013-03-04 01:49:00,26.2,18.7,29.66,South,180,2.7,-999.0,73,-99.99,,,0.00,Acu-Link.com,2013-03-04 06:49:00,
2013-03-04 02:05:00,26.2,19.1,29.66,NNW,337,5.8,-999.0,74,-99.99,,,0.00,Acu-Link.com,2013-03-04 07:05:00,
2013-03-04 02:20:00,26.2,19.4,29.66,SSW,202,0.0,-999.0,75,-99.99,,,0.00,Acu-Link.com,2013-03-04 07:20:00,
2013-03-04 02:35:00,26.2,19.7,29.66,ESE,112,2.7,-999.0,76,-99.99,,,0.00,Acu-Link.com,2013-03-04 07:35:00,
2013-03-04 02:50:00,26.2,19.7,29.66,SSW,202,4.7,-999.0,76,-99.99,,,0.00,Acu-Link.com,2013-03-04 07:50:00,
2013-03-04 03:05:00,26.4,19.9,29.66,SSE,157,5.3,-999.0,76,-99.99,,,0.00,Acu-Link.com,2013-03-04 08:05:00,
2013-03-04 03:20:00,26.4,19.9,29.67,SSE,157,1.1,-999.0,76,-99.99,,,0.00,Acu-Link.com,2013-03-04 08:20:00,
2013-03-04 03:36:00,26.6,20.4,29.67,WNW,292,3.7,-999.0,77,-99.99,,,0.00,Acu-Link.com,2013-03-04 08:36:00,
2013-03-04 03:51:00,26.6,20.7,29.67,SW,225,1.7,-999.0,78,-99.99,,,0.00,Acu-Link.com,2013-03-04 08:51:00,
2013-03-04 04:19:00,26.6,20.7,29.66,SSW,202,3.7,-999.0,78,-99.99,,,0.00,Acu-Link.com,2013-03-04 09:19:00,
2013-03-04 04:34:00,26.8,21.2,29.67,NNE,22,1.1,-999.0,79,-99.99,,,0.00,Acu-Link.com,2013-03-04 09:34:00,
2013-03-04 04:50:00,26.6,21.0,29.67,WSW,247,1.1,-999.0,79,-99.99,,,0.00,Acu-Link.com,2013-03-04 09:50:00,
2013-03-04 05:05:00,26.8,21.2,29.67,South,180,2.2,-999.0,79,-99.99,,,0.00,Acu-Link.com,2013-03-04 10:05:00,
2013-03-04 05:20:00,27.0,21.1,29.67,SW,225,2.7,-999.0,78,-99.99,,,0.00,Acu-Link.com,2013-03-04 10:20:00,
2013-03-04 05:35:00,27.0,21.1,29.67,NNE,22,2.7,-999.0,78,-99.99,,,0.00,Acu-Link.com,2013-03-04 10:35:00,
2013-03-04 05:51:00,27.0,21.1,29.67,North,0,0.0,-999.0,78,-99.99,,,0.00,Acu-Link.com,2013-03-04 10:51:00,
2013-03-04 06:06:00,27.1,20.6,29.68,West,270,3.7,-999.0,76,-99.99,,,0.00,Acu-Link.com,2013-03-04 11:06:00,
2013-03-04 06:21:00,27.3,20.8,29.68,NW,315,3.7,-999.0,76,-99.99,,,0.00,Acu-Link.com,2013-03-04 11:21:00,
2013-03-04 06:36:00,27.5,20.9,29.68,South,180,2.7,-999.0,76,-99.99,,,0.00,Acu-Link.com,2013-03-04 11:36:00,
2013-03-04 06:52:00,27.5,20.6,29.69,ESE,112,4.2,-999.0,75,-99.99,,,0.00,Acu-Link.com,2013-03-04 11:52:00,
2013-03-04 07:07:00,27.5,20.6,29.69,SSE,157,2.7,-999.0,75,-99.99,,,0.00,Acu-Link.com,2013-03-04 12:07:00,
2013-03-04 07:22:00,28.6,21.4,29.69,WNW,292,2.7,-999.0,74,-99.99,,,0.00,Acu-Link.com,2013-03-04 12:22:00,
2013-03-04 07:38:00,28.2,20.7,29.70,SW,225,3.7,-999.0,73,-99.99,,,0.00,Acu-Link.com,2013-03-04 12:38:00,
2013-03-04 07:53:00,28.0,20.5,29.70,ESE,112,8.3,-999.0,73,-99.99,,,0.00,Acu-Link.com,2013-03-04 12:53:00,
2013-03-04 08:08:00,29.1,21.2,29.70,NNW,337,2.7,-999.0,72,-99.99,,,0.00,Acu-Link.com,2013-03-04 13:08:00,
2013-03-04 08:23:00,30.7,21.8,29.70,NW,315,1.7,-999.0,69,-99.99,,,0.00,Acu-Link.com,2013-03-04 13:23:00,
2013-03-04 08:38:00,30.0,21.1,29.68,South,180,4.7,-999.0,69,-99.99,,,0.00,Acu-Link.com,2013-03-04 13:38:00,
2013-03-04 08:53:00,29.7,20.8,29.68,NNW,337,2.7,-999.0,69,-99.99,,,0.00,Acu-Link.com,2013-03-04 13:53:00,
2013-03-04 09:08:00,30.0,21.1,29.68,ESE,112,2.7,-999.0,69,-99.99,,,0.00,Acu-Link.com,2013-03-04 14:08:00,
2013-03-04 09:24:00,31.1,21.4,29.68,NNW,337,3.2,-999.0,67,-99.99,,,0.00,Acu-Link.com,2013-03-04 14:24:00,
2013-03-04 09:39:00,30.6,21.0,29.68,SE,135,2.2,-999.0,67,-99.99,,,0.00,Acu-Link.com,2013-03-04 14:39:00,
2013-03-04 09:54:00,31.5,21.5,29.69,NW,315,7.8,-999.0,66,-99.99,,,0.00,Acu-Link.com,2013-03-04 14:54:00,
2013-03-04 10:10:00,31.6,20.8,29.69,NNW,337,4.2,-999.0,64,-99.99,,,0.00,Acu-Link.com,2013-03-04 15:10:00,
2013-03-04 10:25:00,32.5,21.7,29.69,NW,315,4.7,-999.0,64,-99.99,,,0.00,Acu-Link.com,2013-03-04 15:25:00,
2013-03-04 10:40:00,33.3,21.7,29.69,SE,135,5.3,-999.0,62,-99.99,,,0.00,Acu-Link.com,2013-03-04 15:40:00,
2013-03-04 10:55:00,33.1,21.5,29.69,NNW,337,4.7,-999.0,62,-99.99,,,0.00,Acu-Link.com,2013-03-04 15:55:00,
2013-03-04 11:10:00,35.2,22.7,29.69,NNW,337,12.5,-999.0,60,-99.99,,,0.00,Acu-Link.com,2013-03-04 16:10:00,
2013-03-04 11:25:00,36.5,23.1,29.69,NNW,337,4.2,-999.0,58,-99.99,,,0.00,Acu-Link.com,2013-03-04 16:25:00,
2013-03-04 11:41:00,35.4,22.5,29.68,North,0,2.7,-999.0,59,-99.99,,,0.00,Acu-Link.com,2013-03-04 16:41:00,
2013-03-04 11:56:00,37.4,24.0,29.67,NNE,22,4.2,-999.0,58,-99.99,,,0.00,Acu-Link.com,2013-03-04 16:56:00,
2013-03-04 12:11:00,36.9,23.1,29.67,NNE,22,8.3,-999.0,57,-99.99,,,0.00,Acu-Link.com,2013-03-04 17:11:00,
2013-03-04 12:27:00,38.5,24.6,29.67,NE,45,8.3,-999.0,57,-99.99,,,0.00,Acu-Link.com,2013-03-04 17:27:00,
2013-03-04 12:42:00,38.8,24.5,29.68,NNW,337,6.8,-999.0,56,-99.99,,,0.00,Acu-Link.com,2013-03-04 17:42:00,
2013-03-04 12:57:00,38.8,24.0,29.67,NNW,337,8.9,-999.0,55,-99.99,,,0.00,Acu-Link.com,2013-03-04 17:57:00,
2013-03-04 13:12:00,37.4,24.0,29.68,NNW,337,5.8,-999.0,58,-99.99,,,0.00,Acu-Link.com,2013-03-04 18:12:00,
2013-03-04 13:27:00,37.2,23.4,29.68,North,0,16.6,-999.0,57,-99.99,,,0.00,Acu-Link.com,2013-03-04 18:27:00,
2013-03-04 13:42:00,37.6,24.6,29.68,SE,135,5.3,-999.0,59,-99.99,,,0.00,Acu-Link.com,2013-03-04 18:42:00,
2013-03-04 13:57:00,35.4,22.9,29.68,NE,45,3.7,-999.0,60,-99.99,,,0.00,Acu-Link.com,2013-03-04 18:57:00,
2013-03-04 14:13:00,35.1,23.4,29.68,NNE,22,6.8,-999.0,62,-99.99,,,0.00,Acu-Link.com,2013-03-04 19:13:00,
2013-03-04 14:28:00,35.6,23.9,29.69,WNW,292,6.8,-999.0,62,-99.99,,,0.00,Acu-Link.com,2013-03-04 19:28:00,
2013-03-04 14:43:00,35.4,23.3,29.69,NNW,337,5.3,-999.0,61,-99.99,,,0.00,Acu-Link.com,2013-03-04 19:43:00,
2013-03-04 14:58:00,35.6,23.9,29.69,NE,45,4.2,-999.0,62,-99.99,,,0.00,Acu-Link.com,2013-03-04 19:58:00,
2013-03-04 15:13:00,35.6,23.9,29.70,NE,45,1.7,-999.0,62,-99.99,,,0.00,Acu-Link.com,2013-03-04 20:13:00,
2013-03-04 15:29:00,35.4,23.3,29.69,WNW,292,1.7,-999.0,61,-99.99,,,0.00,Acu-Link.com,2013-03-04 20:29:00,
2013-03-04 15:44:00,35.8,24.1,29.70,SSE,157,3.2,-999.0,62,-99.99,,,0.00,Acu-Link.com,2013-03-04 20:44:00,
2013-03-04 15:59:00,34.5,22.5,29.69,NE,45,2.2,-999.0,61,-99.99,,,0.00,Acu-Link.com,2013-03-04 20:59:00,
2013-03-04 16:14:00,34.3,22.7,29.70,ESE,112,2.7,-999.0,62,-99.99,,,0.00,Acu-Link.com,2013-03-04 21:14:00,
2013-03-04 16:29:00,34.2,22.9,29.71,SSE,157,3.7,-999.0,63,-99.99,,,0.00,Acu-Link.com,2013-03-04 21:29:00,
2013-03-04 16:44:00,33.8,22.6,29.71,East,90,1.7,-999.0,63,-99.99,,,0.00,Acu-Link.com,2013-03-04 21:44:00,
2013-03-04 16:59:00,32.9,22.1,29.72,West,270,2.2,-999.0,64,-99.99,,,0.00,Acu-Link.com,2013-03-04 21:59:00,
2013-03-04 17:15:00,32.2,21.8,29.73,South,180,5.8,-999.0,65,-99.99,,,0.00,Acu-Link.com,2013-03-04 22:15:00,
2013-03-04 17:30:00,32.0,22.3,29.73,WNW,292,4.2,-999.0,67,-99.99,,,0.00,Acu-Link.com,2013-03-04 22:30:00,
2013-03-04 17:45:00,31.6,22.3,29.73,SSW,202,4.2,-999.0,68,-99.99,,,0.00,Acu-Link.com,2013-03-04 22:45:00,
2013-03-04 18:00:00,31.3,22.0,29.74,NE,45,2.2,-999.0,68,-99.99,,,0.00,Acu-Link.com,2013-03-04 23:00:00,
2013-03-04 18:16:00,30.9,22.3,29.75,North,0,2.7,-999.0,70,-99.99,,,0.00,Acu-Link.com,2013-03-04 23:16:00,
2013-03-04 18:31:00,30.4,21.8,29.75,ESE,112,2.7,-999.0,70,-99.99,,,0.00,Acu-Link.com,2013-03-04 23:31:00,
2013-03-04 18:46:00,30.0,21.4,29.76,ENE,67,0.0,-999.0,70,-99.99,,,0.00,Acu-Link.com,2013-03-04 23:46:00,
2013-03-04 19:01:00,30.0,21.4,29.76,SSW,202,5.3,-999.0,70,-99.99,,,0.00,Acu-Link.com,2013-03-05 00:01:00,
2013-03-04 19:16:00,30.0,21.4,29.76,ESE,112,3.2,-999.0,70,-99.99,,,0.00,Acu-Link.com,2013-03-05 00:16:00,
2013-03-04 19:32:00,30.0,21.4,29.77,SW,225,2.2,-999.0,70,-99.99,,,0.00,Acu-Link.com,2013-03-05 00:32:00,
2013-03-04 19:47:00,30.0,21.8,29.77,ENE,67,3.2,-999.0,71,-99.99,,,0.00,Acu-Link.com,2013-03-05 00:47:00,
2013-03-04 20:02:00,30.0,21.8,29.77,NNW,337,6.8,-999.0,71,-99.99,,,0.00,Acu-Link.com,2013-03-05 01:02:00,
2013-03-04 20:18:00,30.0,21.4,29.78,SSW,202,2.2,-999.0,70,-99.99,,,0.00,Acu-Link.com,2013-03-05 01:18:00,
2013-03-04 20:33:00,30.0,21.8,29.78,NW,315,9.4,-999.0,71,-99.99,,,0.00,Acu-Link.com,2013-03-05 01:33:00,
2013-03-04 20:48:00,30.0,21.8,29.78,NW,315,7.3,-999.0,71,-99.99,,,0.00,Acu-Link.com,2013-03-05 01:48:00,
2013-03-04 21:03:00,30.0,21.8,29.78,NE,45,2.7,-999.0,71,-99.99,,,0.00,Acu-Link.com,2013-03-05 02:03:00,
2013-03-04 21:18:00,30.0,21.8,29.79,SE,135,1.1,-999.0,71,-99.99,,,0.00,Acu-Link.com,2013-03-05 02:18:00,
2013-03-04 21:34:00,30.2,22.3,29.79,North,0,0.0,-999.0,72,-99.99,,,0.00,Acu-Link.com,2013-03-05 02:34:00,
2013-03-04 21:49:00,30.2,22.3,29.81,North,0,7.3,-999.0,72,-99.99,,,0.00,Acu-Link.com,2013-03-05 02:49:00,
2013-03-04 22:04:00,30.2,22.3,29.81,South,180,2.7,-999.0,72,-99.99,,,0.00,Acu-Link.com,2013-03-05 03:04:00,
2013-03-04 22:19:00,30.2,22.6,29.81,NE,45,2.2,-999.0,73,-99.99,,,0.00,Acu-Link.com,2013-03-05 03:19:00,
2013-03-04 22:34:00,30.2,22.6,29.80,ENE,67,1.7,-999.0,73,-99.99,,,0.00,Acu-Link.com,2013-03-05 03:34:00,
2013-03-04 22:50:00,30.2,22.6,29.81,NW,315,7.3,-999.0,73,-99.99,,,0.00,Acu-Link.com,2013-03-05 03:50:00,
2013-03-04 23:05:00,30.2,22.9,29.81,NNE,22,5.3,-999.0,74,-99.99,,,0.00,Acu-Link.com,2013-03-05 04:05:00,
2013-03-04 23:20:00,30.2,22.9,29.81,South,180,3.2,-999.0,74,-99.99,,,0.00,Acu-Link.com,2013-03-05 04:20:00,
2013-03-04 23:36:00,30.2,23.2,29.82,NE,45,2.2,-999.0,75,-99.99,,,0.00,Acu-Link.com,2013-03-05 04:36:00,
2013-03-04 23:51:00,30.0,22.7,29.82,NNW,337,1.7,-999.0,74,-99.99,,,0.00,Acu-Link.com,2013-03-05 04:51:00,